Time;durP1;ratioP1;P1;durP2;ratioP2;P2;SDS_P1;SDS_P2;PMS_P1;PMS_P2;Temp;Humidity;BMP_temperature;BMP_pressure;BME280_temperature;BME280_humidity;BME280_pressure;Samples;Min_cycle;Max_cycle;Signal;HPM_P1;HPM_P2
2022/09/02 00:01:01;;;;;;;2.90;2.60;;;;;;;;;;4951860;29;20055;-86
2022/09/02 00:03:33;;;;;;;5.00;3.08;;;;;;;;;;4966129;28;20058;-85
2022/09/02 00:06:00;;;;;;;4.20;3.15;;;;;;;;;;4972212;28;20051;-85
2022/09/02 00:08:26;;;;;;;6.18;2.90;;;;;;;;;;4962306;28;20050;-86
2022/09/02 00:10:52;;;;;;;3.45;2.70;;;;;;;;;;4966307;28;20062;-86
2022/09/02 00:13:19;;;;;;;5.13;2.80;;;;;;;;;;4952071;29;20078;-86
2022/09/02 00:15:46;;;;;;;4.47;2.80;;;;;;;;;;4935870;29;20078;-86
2022/09/02 00:18:12;;;;;;;5.10;2.63;;;;;;;;;;4952006;28;20157;-86
2022/09/02 00:20:40;;;;;;;5.65;2.85;;;;;;;;;;4953225;29;20047;-86
2022/09/02 00:23:07;;;;;;;3.95;2.80;;;;;;;;;;4951991;28;20054;-86
2022/09/02 00:25:33;;;;;;;3.30;2.72;;;;;;;;;;4953426;29;20058;-86
2022/09/02 00:28:00;;;;;;;5.28;2.97;;;;;;;;;;4951742;28;20053;-86
2022/09/02 00:30:26;;;;;;;3.15;2.80;;;;;;;;;;4958106;28;20081;-86
2022/09/02 00:32:53;;;;;;;3.25;2.92;;;;;;;;;;4972006;28;20097;-86
2022/09/02 00:35:19;;;;;;;3.08;2.70;;;;;;;;;;4971062;28;20058;-86
2022/09/02 00:37:45;;;;;;;4.35;2.90;;;;;;;;;;4951529;28;20043;-86
2022/09/02 00:40:12;;;;;;;4.45;3.00;;;;;;;;;;4966008;28;20546;-86
2022/09/02 00:42:38;;;;;;;3.40;3.10;;;;;;;;;;4952978;28;20047;-86
2022/09/02 00:45:05;;;;;;;3.67;2.88;;;;;;;;;;4950737;28;20063;-85
2022/09/02 00:47:31;;;;;;;3.75;3.30;;;;;;;;;;4951514;28;20090;-86
2022/09/02 00:49:58;;;;;;;2.95;2.70;;;;;;;;;;4952141;29;20058;-85
2022/09/02 00:52:31;;;;;;;6.13;3.10;;;;;;;;;;4951629;28;20075;-86
2022/09/02 00:54:59;;;;;;;3.83;2.92;;;;;;;;;;4962422;28;20496;-86
2022/09/02 00:57:28;;;;;;;5.20;3.20;;;;;;;;;;4971444;28;20069;-86
2022/09/02 00:59:59;;;;;;;3.65;3.03;;;;;;;;;;4968729;28;20050;-85
2022/09/02 01:02:27;;;;;;;3.53;3.10;;;;;;;;;;4966172;28;20047;-85
2022/09/02 01:04:57;;;;;;;3.47;2.63;;;;;;;;;;4971347;28;20129;-86
2022/09/02 01:07:28;;;;;;;4.55;3.00;;;;;;;;;;4954753;28;20078;-85
2022/09/02 01:09:54;;;;;;;3.65;2.85;;;;;;;;;;4956817;28;20066;-86
2022/09/02 01:12:21;;;;;;;4.57;3.40;;;;;;;;;;4971255;28;20055;-86
2022/09/02 01:14:49;;;;;;;3.75;2.92;;;;;;;;;;4971496;28;20046;-85
2022/09/02 01:17:18;;;;;;;3.35;2.90;;;;;;;;;;4971120;28;20569;-85
2022/09/02 01:19:46;;;;;;;3.88;2.70;;;;;;;;;;4971421;28;20496;-86
2022/09/02 01:22:17;;;;;;;4.05;2.60;;;;;;;;;;4957212;28;20077;-86
2022/09/02 01:24:43;;;;;;;5.35;3.15;;;;;;;;;;4959193;28;20217;-86
2022/09/02 01:27:09;;;;;;;3.92;2.72;;;;;;;;;;4952853;28;20552;-85
2022/09/02 01:29:35;;;;;;;4.57;2.60;;;;;;;;;;4966064;28;20496;-86
2022/09/02 01:32:01;;;;;;;4.13;2.70;;;;;;;;;;4969420;28;20407;-86
2022/09/02 01:34:28;;;;;;;3.10;2.80;;;;;;;;;;4973758;28;20506;-86
2022/09/02 01:36:54;;;;;;;2.70;2.50;;;;;;;;;;4959257;28;20047;-85
2022/09/02 01:39:20;;;;;;;3.40;2.80;;;;;;;;;;4950823;28;20047;-85
2022/09/02 01:41:46;;;;;;;4.20;2.90;;;;;;;;;;4968379;28;20078;-85
2022/09/02 01:44:15;;;;;;;3.22;2.90;;;;;;;;;;4969887;28;20505;-86
2022/09/02 01:46:41;;;;;;;3.90;2.90;;;;;;;;;;4957625;28;20460;-86
2022/09/02 01:49:07;;;;;;;3.00;2.70;;;;;;;;;;4948313;28;20051;-86
2022/09/02 01:51:33;;;;;;;6.20;3.25;;;;;;;;;;4964210;28;20155;-85
2022/09/02 01:53:59;;;;;;;3.97;2.80;;;;;;;;;;4969442;28;20058;-86
2022/09/02 01:56:25;;;;;;;3.65;3.00;;;;;;;;;;4969564;28;20086;-86
2022/09/02 01:58:51;;;;;;;3.10;2.80;;;;;;;;;;4961476;28;20093;-86
2022/09/02 02:01:17;;;;;;;5.03;3.45;;;;;;;;;;4950378;28;20087;-85
2022/09/02 02:03:43;;;;;;;4.70;3.00;;;;;;;;;;4951006;28;20602;-86
2022/09/02 02:06:10;;;;;;;4.20;2.95;;;;;;;;;;4950497;28;20126;-86
2022/09/02 02:08:37;;;;;;;3.33;2.90;;;;;;;;;;4952477;28;20051;-85
2022/09/02 02:11:03;;;;;;;3.67;3.10;;;;;;;;;;4950324;28;20055;-86
2022/09/02 02:13:29;;;;;;;4.20;3.08;;;;;;;;;;4950466;29;20051;-86
2022/09/02 02:15:55;;;;;;;3.33;2.80;;;;;;;;;;4951133;29;20058;-86
2022/09/02 02:18:22;;;;;;;4.50;3.00;;;;;;;;;;4950976;28;20126;-85
2022/09/02 02:20:48;;;;;;;4.13;3.15;;;;;;;;;;4951046;28;20047;-86
2022/09/02 02:23:14;;;;;;;3.53;3.22;;;;;;;;;;4951016;29;20043;-86
2022/09/02 02:25:40;;;;;;;4.03;2.90;;;;;;;;;;4964365;28;20043;-86
2022/09/02 02:28:06;;;;;;;3.15;2.85;;;;;;;;;;4970197;28;20542;-86
2022/09/02 02:30:32;;;;;;;5.68;2.90;;;;;;;;;;4970665;28;20161;-86
2022/09/02 02:32:58;;;;;;;3.35;3.00;;;;;;;;;;4966635;28;20051;-86
2022/09/02 02:35:25;;;;;;;4.53;2.97;;;;;;;;;;4956401;28;20117;-87
2022/09/02 02:37:51;;;;;;;4.57;3.10;;;;;;;;;;4951120;28;20098;-87
2022/09/02 02:40:19;;;;;;;3.30;2.90;;;;;;;;;;4950584;28;20465;-86
2022/09/02 02:42:45;;;;;;;4.65;3.10;;;;;;;;;;4954567;28;20031;-86
2022/09/02 02:45:11;;;;;;;5.05;3.08;;;;;;;;;;4968782;28;20051;-86
2022/09/02 02:47:38;;;;;;;4.43;2.90;;;;;;;;;;4969317;28;20078;-86
2022/09/02 02:50:06;;;;;;;3.38;2.78;;;;;;;;;;4963662;28;20043;-86
2022/09/02 02:52:32;;;;;;;3.78;3.20;;;;;;;;;;4964601;28;20456;-86
2022/09/02 02:54:58;;;;;;;4.18;3.00;;;;;;;;;;4950337;29;20083;-86
2022/09/02 02:57:24;;;;;;;3.30;3.00;;;;;;;;;;4949688;29;20492;-86
2022/09/02 02:59:50;;;;;;;3.80;2.90;;;;;;;;;;4951568;28;20109;-86
2022/09/02 03:02:16;;;;;;;3.95;3.00;;;;;;;;;;4954431;28;20095;-87
2022/09/02 03:04:42;;;;;;;3.17;2.83;;;;;;;;;;4953724;28;20049;-86
2022/09/02 03:07:09;;;;;;;7.85;3.40;;;;;;;;;;4954257;28;20074;-86
2022/09/02 03:09:35;;;;;;;5.25;3.30;;;;;;;;;;4952516;28;20047;-86
2022/09/02 03:12:01;;;;;;;3.38;3.08;;;;;;;;;;4953120;29;20141;-87
2022/09/02 03:14:27;;;;;;;4.57;3.22;;;;;;;;;;4954442;29;20031;-86
2022/09/02 03:16:53;;;;;;;4.05;3.17;;;;;;;;;;4954016;29;20058;-86
2022/09/02 03:19:20;;;;;;;3.97;3.00;;;;;;;;;;4954501;28;20043;-86
2022/09/02 03:21:46;;;;;;;4.03;3.60;;;;;;;;;;4972278;28;20558;-86
2022/09/02 03:24:12;;;;;;;4.05;3.40;;;;;;;;;;4972204;28;20419;-86
2022/09/02 03:26:40;;;;;;;3.30;3.00;;;;;;;;;;4973487;28;20411;-86
2022/09/02 03:29:06;;;;;;;3.40;3.10;;;;;;;;;;4973427;28;20046;-86
2022/09/02 03:31:32;;;;;;;4.15;3.25;;;;;;;;;;4973277;28;20063;-86
2022/09/02 03:33:58;;;;;;;4.65;3.30;;;;;;;;;;4960583;28;20047;-87
2022/09/02 03:36:29;;;;;;;5.90;3.60;;;;;;;;;;4956780;28;20054;-86
2022/09/02 03:38:56;;;;;;;5.38;3.38;;;;;;;;;;4964596;28;20050;-87
2022/09/02 03:41:22;;;;;;;3.72;3.40;;;;;;;;;;4973460;28;20043;-87
2022/09/02 03:43:48;;;;;;;3.88;3.47;;;;;;;;;;4973012;28;20043;-86
2022/09/02 03:46:15;;;;;;;4.72;3.45;;;;;;;;;;4975415;28;20042;-86
2022/09/02 03:48:41;;;;;;;4.03;3.20;;;;;;;;;;4959820;28;20075;-86
2022/09/02 03:51:07;;;;;;;5.20;3.28;;;;;;;;;;4961476;28;20053;-86
2022/09/02 03:53:34;;;;;;;4.72;3.53;;;;;;;;;;4972514;28;20136;-86
2022/09/02 03:56:04;;;;;;;4.53;3.55;;;;;;;;;;4971974;28;20070;-86
2022/09/02 03:58:30;;;;;;;4.57;3.20;;;;;;;;;;4971931;28;20503;-86
2022/09/02 04:00:56;;;;;;;5.30;3.67;;;;;;;;;;4972577;28;20047;-86
2022/09/02 04:03:22;;;;;;;3.58;3.03;;;;;;;;;;4960475;28;20082;-86
2022/09/02 04:05:50;;;;;;;4.93;3.53;;;;;;;;;;4952493;28;20071;-86
2022/09/02 04:08:16;;;;;;;3.50;3.20;;;;;;;;;;4957444;28;20090;-86
2022/09/02 04:10:42;;;;;;;4.05;3.30;;;;;;;;;;4972486;28;20055;-86
2022/09/02 04:13:08;;;;;;;5.78;3.42;;;;;;;;;;4972021;28;20054;-87
2022/09/02 04:15:38;;;;;;;3.72;3.42;;;;;;;;;;4971354;28;20100;-86
2022/09/02 04:18:04;;;;;;;3.75;3.30;;;;;;;;;;4958665;28;20050;-86
2022/09/02 04:20:30;;;;;;;4.13;3.63;;;;;;;;;;4964073;28;20042;-87
2022/09/02 04:22:56;;;;;;;3.92;3.53;;;;;;;;;;4952904;28;20051;-86
2022/09/02 04:25:22;;;;;;;4.53;3.50;;;;;;;;;;4953147;29;20039;-85
2022/09/02 04:27:51;;;;;;;3.97;3.10;;;;;;;;;;4983428;28;20505;-86
2022/09/02 04:30:17;;;;;;;3.78;3.47;;;;;;;;;;4951998;28;20500;-86
2022/09/02 04:32:44;;;;;;;4.78;3.40;;;;;;;;;;4952409;28;20571;-87
2022/09/02 04:35:10;;;;;;;5.63;3.15;;;;;;;;;;4951893;28;20094;-86
2022/09/02 04:37:36;;;;;;;4.20;3.45;;;;;;;;;;4967516;28;20051;-86
2022/09/02 04:40:03;;;;;;;4.85;3.70;;;;;;;;;;4970733;28;20066;-86
2022/09/02 04:42:29;;;;;;;5.15;3.40;;;;;;;;;;4970905;28;20061;-86
2022/09/02 04:44:56;;;;;;;3.72;3.30;;;;;;;;;;4954308;28;20049;-86
2022/09/02 04:47:23;;;;;;;6.43;3.60;;;;;;;;;;4969796;28;20105;-87
2022/09/02 04:49:51;;;;;;;4.07;3.40;;;;;;;;;;4966637;28;20049;-86
2022/09/02 04:52:19;;;;;;;3.75;3.45;;;;;;;;;;4970965;28;20152;-86
2022/09/02 04:54:45;;;;;;;4.43;3.65;;;;;;;;;;4972137;28;20046;-86
2022/09/02 04:57:11;;;;;;;4.68;3.33;;;;;;;;;;4971691;28;20503;-86
2022/09/02 04:59:37;;;;;;;3.58;3.28;;;;;;;;;;4971777;28;20054;-86
2022/09/02 05:02:04;;;;;;;3.95;3.42;;;;;;;;;;4967680;28;20042;-86
2022/09/02 05:04:30;;;;;;;5.65;3.58;;;;;;;;;;4962406;28;20047;-87
2022/09/02 05:07:00;;;;;;;5.68;3.70;;;;;;;;;;4960562;28;20133;-87
2022/09/02 05:09:26;;;;;;;6.40;3.78;;;;;;;;;;4969236;28;20563;-88
2022/09/02 05:11:56;;;;;;;4.13;3.65;;;;;;;;;;4953903;28;20078;-89
2022/09/02 05:14:22;;;;;;;4.60;3.40;;;;;;;;;;4954294;28;20412;-87
2022/09/02 05:16:52;;;;;;;4.30;3.20;;;;;;;;;;4959724;28;20054;-87
2022/09/02 05:19:20;;;;;;;3.92;3.53;;;;;;;;;;4956209;28;20508;-87
2022/09/02 05:21:47;;;;;;;3.65;3.22;;;;;;;;;;4963042;28;20054;-87
2022/09/02 05:24:14;;;;;;;6.32;3.92;;;;;;;;;;4961441;28;20497;-87
2022/09/02 05:26:43;;;;;;;5.05;3.13;;;;;;;;;;4986847;28;20512;-87
2022/09/02 05:29:10;;;;;;;4.38;3.40;;;;;;;;;;4972861;28;20050;-86
2022/09/02 05:31:36;;;;;;;5.40;3.60;;;;;;;;;;4977164;28;20078;-87
2022/09/02 05:34:03;;;;;;;4.45;3.80;;;;;;;;;;4967516;28;20039;-86
2022/09/02 05:36:31;;;;;;;4.18;3.50;;;;;;;;;;4957895;28;20073;-87
2022/09/02 05:38:58;;;;;;;3.85;3.45;;;;;;;;;;4972866;28;20066;-87
2022/09/02 05:41:24;;;;;;;4.80;3.00;;;;;;;;;;4982480;28;20081;-87
2022/09/02 05:43:55;;;;;;;3.33;3.03;;;;;;;;;;4973188;28;20042;-87
2022/09/02 05:46:22;;;;;;;4.00;2.95;;;;;;;;;;4962917;28;20554;-86
2022/09/02 05:49:07;;;;;;;4.25;3.35;;;;;;;;;;4967858;28;20400;-86
2022/09/02 05:51:40;;;;;;;4.23;3.60;;;;;;;;;;4969106;28;20042;-86
2022/09/02 05:54:07;;;;;;;4.63;3.10;;;;;;;;;;4968150;28;20488;-86
2022/09/02 05:56:33;;;;;;;3.30;3.00;;;;;;;;;;4974369;28;20051;-86
2022/09/02 05:58:59;;;;;;;3.80;2.85;;;;;;;;;;4969726;28;20057;-86
2022/09/02 06:01:25;;;;;;;4.40;3.35;;;;;;;;;;4970974;28;20050;-86
2022/09/02 06:03:51;;;;;;;3.63;3.10;;;;;;;;;;4970217;28;20492;-86
2022/09/02 06:06:18;;;;;;;3.58;3.10;;;;;;;;;;4957644;28;20495;-86
2022/09/02 06:08:44;;;;;;;4.00;3.22;;;;;;;;;;4951894;28;20043;-86
2022/09/02 06:11:11;;;;;;;3.83;3.35;;;;;;;;;;4976750;28;20063;-84
2022/09/02 06:13:39;;;;;;;3.40;3.10;;;;;;;;;;4970744;28;20134;-84
2022/09/02 06:16:09;;;;;;;3.80;3.03;;;;;;;;;;4949843;29;20503;-84
2022/09/02 06:18:35;;;;;;;4.03;3.38;;;;;;;;;;4972798;28;20051;-84
2022/09/02 06:21:02;;;;;;;3.65;3.00;;;;;;;;;;4970299;28;20093;-84
2022/09/02 06:23:28;;;;;;;4.10;3.10;;;;;;;;;;4961536;28;20071;-84
2022/09/02 06:25:54;;;;;;;3.60;2.92;;;;;;;;;;4969059;28;20166;-84
2022/09/02 06:28:20;;;;;;;3.50;3.20;;;;;;;;;;4970571;28;20055;-84
2022/09/02 06:30:47;;;;;;;3.47;3.05;;;;;;;;;;4953359;28;20043;-84
2022/09/02 06:33:13;;;;;;;5.95;3.53;;;;;;;;;;4949631;29;20047;-84
2022/09/02 06:35:42;;;;;;;5.85;3.53;;;;;;;;;;4962244;28;20404;-84
2022/09/02 06:38:09;;;;;;;4.53;3.00;;;;;;;;;;4957077;28;20057;-87
2022/09/02 06:40:36;;;;;;;3.97;3.08;;;;;;;;;;4971746;28;20054;-86
2022/09/02 06:43:02;;;;;;;4.78;3.00;;;;;;;;;;4974223;28;20097;-87
2022/09/02 06:45:30;;;;;;;3.33;2.92;;;;;;;;;;4963673;28;20047;-87
2022/09/02 06:47:56;;;;;;;4.13;3.15;;;;;;;;;;4954751;28;20039;-86
2022/09/02 06:50:22;;;;;;;3.97;3.05;;;;;;;;;;4953536;29;20055;-86
2022/09/02 06:52:48;;;;;;;4.07;3.20;;;;;;;;;;4955873;28;20055;-86
2022/09/02 06:55:16;;;;;;;4.28;3.30;;;;;;;;;;4968460;28;20045;-86
2022/09/02 06:57:42;;;;;;;6.57;3.15;;;;;;;;;;4993576;28;20455;-86
2022/09/02 07:00:09;;;;;;;5.25;2.97;;;;;;;;;;4963095;28;20089;-86
2022/09/02 07:02:36;;;;;;;3.55;3.17;;;;;;;;;;4954666;28;20048;-86
2022/09/02 07:05:14;;;;;;;4.53;3.55;;;;;;;;;;4959566;28;20118;-86
2022/09/02 07:07:43;;;;;;;3.72;2.97;;;;;;;;;;4971751;28;20077;-86
2022/09/02 07:10:10;;;;;;;3.97;2.90;;;;;;;;;;4963335;28;20051;-86
2022/09/02 07:12:37;;;;;;;3.45;3.03;;;;;;;;;;4954482;28;20091;-87
2022/09/02 07:15:04;;;;;;;3.63;3.00;;;;;;;;;;4958551;28;20063;-86
2022/09/02 07:17:30;;;;;;;4.28;2.63;;;;;;;;;;4972289;28;20047;-86
2022/09/02 07:19:59;;;;;;;5.47;2.63;;;;;;;;;;4973482;28;20049;-84
2022/09/02 07:22:25;;;;;;;3.88;2.90;;;;;;;;;;4972082;28;20066;-85
2022/09/02 07:24:51;;;;;;;3.95;2.80;;;;;;;;;;4965243;28;20046;-84
2022/09/02 07:27:19;;;;;;;3.35;2.80;;;;;;;;;;4973709;28;20053;-84
2022/09/02 07:29:47;;;;;;;4.65;2.80;;;;;;;;;;4971797;28;20073;-84
2022/09/02 07:32:14;;;;;;;4.13;2.75;;;;;;;;;;4973204;28;20047;-84
2022/09/02 07:34:40;;;;;;;4.78;2.72;;;;;;;;;;4973416;28;20114;-84
2022/09/02 07:37:06;;;;;;;2.80;2.50;;;;;;;;;;4970746;28;20085;-84
2022/09/02 07:39:32;;;;;;;5.13;2.75;;;;;;;;;;4963746;28;20047;-84
2022/09/02 07:41:58;;;;;;;5.72;2.70;;;;;;;;;;4953822;29;20085;-84
2022/09/02 07:44:24;;;;;;;4.22;2.50;;;;;;;;;;4953436;28;20385;-84
2022/09/02 07:46:51;;;;;;;4.38;2.70;;;;;;;;;;4952909;28;20043;-84
2022/09/02 07:49:17;;;;;;;3.00;2.33;;;;;;;;;;4953073;29;20047;-84
2022/09/02 07:51:47;;;;;;;4.63;2.67;;;;;;;;;;4954214;29;20133;-84
2022/09/02 07:54:14;;;;;;;3.22;2.38;;;;;;;;;;4966637;28;20059;-84
2022/09/02 07:56:41;;;;;;;4.07;2.67;;;;;;;;;;4970153;28;20469;-84
2022/09/02 07:59:07;;;;;;;3.25;2.30;;;;;;;;;;4953077;28;20114;-84
2022/09/02 08:01:33;;;;;;;2.72;2.20;;;;;;;;;;4953768;29;20118;-84
2022/09/02 08:03:59;;;;;;;4.07;2.30;;;;;;;;;;4969247;28;20058;-83
2022/09/02 08:06:27;;;;;;;2.60;2.40;;;;;;;;;;4955197;28;20047;-83
2022/09/02 08:08:54;;;;;;;4.43;2.53;;;;;;;;;;4952906;28;20051;-84
2022/09/02 08:11:20;;;;;;;5.07;2.20;;;;;;;;;;4951409;28;20086;-84
2022/09/02 08:13:47;;;;;;;3.13;2.17;;;;;;;;;;4953180;29;20051;-84
2022/09/02 08:16:13;;;;;;;4.43;2.40;;;;;;;;;;4952149;29;20047;-84
2022/09/02 08:18:39;;;;;;;4.80;2.60;;;;;;;;;;4953597;28;20043;-84
2022/09/02 08:21:05;;;;;;;4.32;2.60;;;;;;;;;;4952059;29;20098;-84
2022/09/02 08:23:31;;;;;;;3.25;2.25;;;;;;;;;;4957294;28;20038;-84
2022/09/02 08:26:01;;;;;;;2.75;2.40;;;;;;;;;;4963245;28;20138;-84
2022/09/02 08:28:27;;;;;;;2.90;2.25;;;;;;;;;;4952150;29;20047;-84
2022/09/02 08:30:56;;;;;;;3.13;2.17;;;;;;;;;;4952669;28;20062;-84
2022/09/02 08:33:22;;;;;;;2.60;2.25;;;;;;;;;;4963374;28;20131;-84
2022/09/02 08:35:48;;;;;;;3.25;2.20;;;;;;;;;;4971215;28;20051;-83
2022/09/02 08:38:14;;;;;;;3.58;2.20;;;;;;;;;;4972272;28;20072;-84
2022/09/02 08:40:41;;;;;;;3.05;2.10;;;;;;;;;;4971010;28;20286;-84
2022/09/02 08:43:21;;;;;;;3.50;2.50;;;;;;;;;;4955384;28;20087;-84
2022/09/02 08:45:47;;;;;;;2.20;2.00;;;;;;;;;;4951856;28;20087;-84
2022/09/02 08:48:31;;;;;;;2.33;1.98;;;;;;;;;;4960421;28;20051;-84
2022/09/02 08:51:00;;;;;;;2.83;2.10;;;;;;;;;;4971791;28;20463;-84
2022/09/02 08:53:38;;;;;;;4.13;2.15;;;;;;;;;;4970855;28;20053;-84
2022/09/02 08:56:05;;;;;;;3.63;2.20;;;;;;;;;;4970204;28;20050;-84
2022/09/02 08:58:38;;;;;;;3.47;2.35;;;;;;;;;;4970120;28;20125;-84
2022/09/02 09:01:19;;;;;;;2.63;2.22;;;;;;;;;;4971758;28;20050;-84
2022/09/02 09:04:04;;;;;;;4.22;2.38;;;;;;;;;;4969858;28;20125;-84
2022/09/02 09:06:49;;;;;;;3.20;2.10;;;;;;;;;;4972278;28;20073;-84
2022/09/02 09:09:33;;;;;;;3.25;2.30;;;;;;;;;;4971553;28;20495;-84
2022/09/02 09:12:13;;;;;;;3.38;2.20;;;;;;;;;;4959065;28;20051;-84
2022/09/02 09:14:57;;;;;;;5.82;2.20;;;;;;;;;;4951648;29;20576;-84
2022/09/02 09:17:25;;;;;;;4.13;2.35;;;;;;;;;;4950251;28;20074;-84
2022/09/02 09:19:57;;;;;;;3.83;1.98;;;;;;;;;;4970501;28;20102;-84
2022/09/02 09:22:29;;;;;;;3.70;2.08;;;;;;;;;;4971802;28;20055;-84
2022/09/02 09:24:56;;;;;;;3.65;2.25;;;;;;;;;;4971050;28;20043;-84
2022/09/02 09:27:23;;;;;;;4.13;2.30;;;;;;;;;;4969193;28;20117;-83
2022/09/02 09:29:49;;;;;;;3.33;2.38;;;;;;;;;;4970114;28;20050;-84
2022/09/02 09:32:27;;;;;;;4.78;2.25;;;;;;;;;;4971162;28;20117;-84
2022/09/02 09:34:56;;;;;;;3.13;2.13;;;;;;;;;;4967238;28;20051;-84
2022/09/02 09:37:38;;;;;;;2.53;2.00;;;;;;;;;;4971328;28;20429;-84
2022/09/02 09:40:30;;;;;;;2.50;2.10;;;;;;;;;;4970777;28;20043;-84
2022/09/02 09:43:05;;;;;;;2.80;2.10;;;;;;;;;;4949067;28;20062;-84
2022/09/02 09:45:36;;;;;;;2.77;2.00;;;;;;;;;;4951001;29;20047;-84
2022/09/02 09:48:17;;;;;;;2.63;1.92;;;;;;;;;;4951129;28;20500;-84
2022/09/02 09:50:47;;;;;;;4.63;2.20;;;;;;;;;;4970002;28;20047;-84
2022/09/02 09:53:20;;;;;;;2.92;2.28;;;;;;;;;;4970849;28;20054;-84
2022/09/02 09:55:50;;;;;;;4.70;1.92;;;;;;;;;;4963815;28;20043;-84
2022/09/02 09:58:16;;;;;;;6.55;2.10;;;;;;;;;;4950350;28;20051;-84
2022/09/02 10:00:43;;;;;;;2.83;2.10;;;;;;;;;;4951953;29;20105;-84
2022/09/02 10:03:18;;;;;;;4.47;1.80;;;;;;;;;;4952275;28;20137;-84
2022/09/02 10:05:44;;;;;;;2.88;1.98;;;;;;;;;;4972959;28;20043;-84
2022/09/02 10:08:16;;;;;;;2.70;1.95;;;;;;;;;;4969409;28;20567;-84
2022/09/02 10:11:07;;;;;;;3.75;2.08;;;;;;;;;;4961045;28;20051;-84
2022/09/02 10:13:34;;;;;;;4.65;2.40;;;;;;;;;;4957371;28;20050;-84
2022/09/02 10:16:10;;;;;;;2.20;2.00;;;;;;;;;;4971727;28;20498;-84
2022/09/02 10:18:39;;;;;;;2.15;1.75;;;;;;;;;;4962431;28;20492;-84
2022/09/02 10:21:24;;;;;;;2.53;2.00;;;;;;;;;;4951293;29;20039;-84
2022/09/02 10:23:56;;;;;;;3.88;2.10;;;;;;;;;;4951248;29;20048;-84
2022/09/02 10:26:29;;;;;;;3.35;2.30;;;;;;;;;;4951572;29;20051;-84
2022/09/02 10:29:10;;;;;;;4.97;2.20;;;;;;;;;;4950541;28;20043;-83
2022/09/02 10:31:55;;;;;;;2.60;2.25;;;;;;;;;;4951453;29;20055;-83
2022/09/02 10:34:37;;;;;;;2.00;1.73;;;;;;;;;;4950687;28;20047;-83
2022/09/02 10:37:03;;;;;;;7.40;2.65;;;;;;;;;;4951193;29;20047;-83
2022/09/02 10:39:36;;;;;;;3.40;1.98;;;;;;;;;;4950821;28;20415;-83
2022/09/02 10:42:20;;;;;;;3.03;2.10;;;;;;;;;;4951309;29;20091;-83
2022/09/02 10:44:53;;;;;;;5.10;2.30;;;;;;;;;;4951625;28;20062;-84
2022/09/02 10:47:36;;;;;;;2.97;1.80;;;;;;;;;;4950050;29;20126;-83
2022/09/02 10:50:08;;;;;;;4.22;1.85;;;;;;;;;;4951189;28;20083;-83
2022/09/02 10:52:34;;;;;;;4.18;2.00;;;;;;;;;;4949715;29;20114;-83
2022/09/02 10:55:18;;;;;;;1.90;1.65;;;;;;;;;;4951211;29;20048;-83
2022/09/02 10:57:51;;;;;;;3.58;1.67;;;;;;;;;;4949220;28;20044;-83
2022/09/02 11:00:22;;;;;;;3.47;1.80;;;;;;;;;;4960865;28;20101;-83
2022/09/02 11:02:48;;;;;;;3.75;2.33;;;;;;;;;;4962964;28;20094;-83
2022/09/02 11:05:16;;;;;;;2.65;2.00;;;;;;;;;;4970704;28;20042;-81
2022/09/02 11:07:46;;;;;;;2.85;1.85;;;;;;;;;;4989444;28;20043;-83
2022/09/02 11:10:18;;;;;;;3.70;2.00;;;;;;;;;;4962364;28;20063;-83
2022/09/02 11:12:47;;;;;;;5.53;1.95;;;;;;;;;;4961628;28;20043;-83
2022/09/02 11:15:13;;;;;;;3.13;2.08;;;;;;;;;;4960856;28;20055;-82
2022/09/02 11:17:47;;;;;;;2.55;1.90;;;;;;;;;;4957202;28;20049;-83
2022/09/02 11:20:19;;;;;;;3.22;1.90;;;;;;;;;;4950666;28;20059;-83
2022/09/02 11:22:56;;;;;;;3.00;2.20;;;;;;;;;;4952972;28;20484;-83
2022/09/02 11:25:41;;;;;;;4.97;2.00;;;;;;;;;;4964633;28;20041;-82
2022/09/02 11:28:10;;;;;;;3.47;1.77;;;;;;;;;;4966902;28;20162;-83
2022/09/02 11:30:46;;;;;;;2.28;1.60;;;;;;;;;;4968283;28;20485;-83
2022/09/02 11:33:12;;;;;;;;;;;;;;;;;;4963486;28;20441;-83
2022/09/02 11:35:38;;;;;;;2.00;1.67;;;;;;;;;;4970884;28;20342;-83
2022/09/02 11:38:25;;;;;;;4.32;1.80;;;;;;;;;;4968671;28;20138;-83
2022/09/02 11:41:05;;;;;;;2.03;1.70;;;;;;;;;;4952989;28;20058;-82
2022/09/02 11:43:36;;;;;;;2.88;1.60;;;;;;;;;;4969575;28;20411;-83
2022/09/02 11:46:08;;;;;;;3.25;1.77;;;;;;;;;;4971585;28;20050;-83
2022/09/02 11:48:34;;;;;;;4.28;1.70;;;;;;;;;;4961512;28;20385;-90
2022/09/02 11:51:06;;;;;;;3.85;1.85;;;;;;;;;;4951970;28;20168;-83
2022/09/02 11:53:38;;;;;;;2.72;1.77;;;;;;;;;;4963558;28;20142;-86
2022/09/02 11:56:07;;;;;;;3.50;1.60;;;;;;;;;;4970066;28;20057;-84
2022/09/02 11:58:41;;;;;;;1.70;1.60;;;;;;;;;;4952799;28;20082;-84
2022/09/02 12:01:22;;;;;;;2.90;1.63;;;;;;;;;;4966855;28;20054;-86
2022/09/02 12:03:52;;;;;;;5.05;1.73;;;;;;;;;;4971768;28;20129;-86
2022/09/02 12:06:19;;;;;;;4.35;1.70;;;;;;;;;;4959661;28;20047;-84
2022/09/02 12:08:46;;;;;;;8.35;2.10;;;;;;;;;;4953423;28;20047;-85
2022/09/02 12:11:37;;;;;;;4.38;1.80;;;;;;;;;;4952173;28;20055;-83
2022/09/02 12:14:22;;;;;;;5.30;1.83;;;;;;;;;;4938765;28;20065;-83
2022/09/02 12:17:02;;;;;;;5.30;1.95;;;;;;;;;;4959194;28;20042;-83
2022/09/02 12:19:39;;;;;;;3.78;1.90;;;;;;;;;;4971377;28;20043;-85
2022/09/02 12:22:17;;;;;;;5.15;1.85;;;;;;;;;;4971796;28;20046;-84
2022/09/02 12:24:55;;;;;;;3.40;1.90;;;;;;;;;;4974392;28;20114;-84
2022/09/02 12:27:38;;;;;;;4.03;1.90;;;;;;;;;;4954347;28;20078;-84
2022/09/02 12:30:06;;;;;;;2.33;1.80;;;;;;;;;;4951811;28;20405;-84
2022/09/02 12:32:48;;;;;;;3.25;1.60;;;;;;;;;;4935518;29;20044;-84
2022/09/02 12:35:30;;;;;;;3.92;1.98;;;;;;;;;;4951219;29;20110;-84
2022/09/02 12:37:57;;;;;;;4.07;2.30;;;;;;;;;;4967781;28;20546;-84
2022/09/02 12:40:28;;;;;;;2.65;1.75;;;;;;;;;;4967721;28;20047;-84
2022/09/02 12:42:56;;;;;;;2.97;1.80;;;;;;;;;;4952420;28;20043;-84
2022/09/02 12:45:23;;;;;;;4.50;1.98;;;;;;;;;;4951699;29;20055;-84
2022/09/02 12:48:00;;;;;;;4.55;1.80;;;;;;;;;;4958898;28;20062;-84
2022/09/02 12:50:47;;;;;;;3.70;2.10;;;;;;;;;;4971115;28;20051;-84
2022/09/02 12:53:32;;;;;;;4.72;1.90;;;;;;;;;;4970939;28;20054;-84
2022/09/02 12:56:03;;;;;;;4.17;2.40;;;;;;;;;;4963994;28;20043;-84
2022/09/02 12:58:33;;;;;;;4.60;1.90;;;;;;;;;;4971225;28;20094;-84
2022/09/02 13:01:05;;;;;;;3.67;2.00;;;;;;;;;;4970208;28;20049;-84
2022/09/02 13:03:43;;;;;;;2.75;1.95;;;;;;;;;;4952330;29;20090;-84
2022/09/02 13:06:09;;;;;;;3.88;1.83;;;;;;;;;;4959123;28;20098;-84
2022/09/02 13:08:45;;;;;;;3.47;2.00;;;;;;;;;;4970701;28;20046;-84
2022/09/02 13:11:29;;;;;;;3.15;1.88;;;;;;;;;;4964097;28;20145;-85
2022/09/02 13:13:55;;;;;;;2.40;1.80;;;;;;;;;;4971750;28;20141;-84
2022/09/02 13:16:30;;;;;;;3.47;2.08;;;;;;;;;;4971911;28;20118;-84
2022/09/02 13:19:11;;;;;;;3.05;2.10;;;;;;;;;;4970873;28;20122;-84
2022/09/02 13:21:43;;;;;;;2.65;1.90;;;;;;;;;;4971660;28;20051;-84
2022/09/02 13:24:21;;;;;;;3.03;2.10;;;;;;;;;;4970123;28;20484;-84
2022/09/02 13:26:47;;;;;;;5.57;2.08;;;;;;;;;;4956367;28;20047;-84
2022/09/02 13:29:28;;;;;;;3.95;1.90;;;;;;;;;;4952088;29;20055;-85
2022/09/02 13:32:03;;;;;;;2.55;2.00;;;;;;;;;;4965664;28;20086;-84
2022/09/02 13:34:30;;;;;;;2.90;2.00;;;;;;;;;;4954142;28;20047;-84
2022/09/02 13:36:56;;;;;;;3.05;2.00;;;;;;;;;;4970258;28;20101;-90
2022/09/02 13:39:27;;;;;;;3.85;2.00;;;;;;;;;;4970807;28;20047;-91
2022/09/02 13:41:53;;;;;;;3.78;2.33;;;;;;;;;;4969728;28;20054;-90
2022/09/02 13:44:27;;;;;;;3.05;1.98;;;;;;;;;;4971289;28;20050;-88
2022/09/02 13:47:02;;;;;;;3.72;2.15;;;;;;;;;;4952743;28;20046;-92
2022/09/02 13:49:36;;;;;;;5.45;2.20;;;;;;;;;;4951821;28;20087;-91
2022/09/02 13:52:05;;;;;;;5.65;2.17;;;;;;;;;;4953193;28;20130;-91
2022/09/02 13:54:36;;;;;;;2.53;1.90;;;;;;;;;;4967897;28;20082;-91
2022/09/02 13:57:10;;;;;;;8.70;2.40;;;;;;;;;;4963063;28;20122;-92
2022/09/02 13:59:36;;;;;;;7.68;2.10;;;;;;;;;;4973048;28;20054;-92
2022/09/02 14:02:16;;;;;;;2.50;2.20;;;;;;;;;;4974839;28;20346;-93
2022/09/02 14:04:42;;;;;;;3.50;2.00;;;;;;;;;;4969900;28;20051;-91
2022/09/02 14:07:09;;;;;;;2.70;2.17;;;;;;;;;;4971211;28;20125;-92
2022/09/02 14:09:36;;;;;;;4.22;2.05;;;;;;;;;;4969851;28;20043;-92
2022/09/02 14:12:02;;;;;;;2.90;1.90;;;;;;;;;;4971127;28;20567;-92
2022/09/02 14:14:28;;;;;;;2.78;2.20;;;;;;;;;;4968286;28;20051;-92
2022/09/02 14:17:13;;;;;;;4.05;2.08;;;;;;;;;;4969163;28;20081;-92
2022/09/02 14:19:39;;;;;;;3.30;1.80;;;;;;;;;;4969501;28;20055;-92
2022/09/02 14:22:05;;;;;;;3.95;2.13;;;;;;;;;;4971048;28;20197;-91
2022/09/02 14:24:38;;;;;;;3.22;2.00;;;;;;;;;;4966291;28;20051;-94
2022/09/02 14:27:14;;;;;;;3.40;1.88;;;;;;;;;;4951806;28;20054;-90
2022/09/02 14:29:43;;;;;;;4.00;2.00;;;;;;;;;;4956673;28;20053;-92
2022/09/02 14:32:13;;;;;;;4.10;2.05;;;;;;;;;;4957522;28;20043;-90
2022/09/02 14:34:41;;;;;;;6.07;1.98;;;;;;;;;;4959646;28;20051;-91
2022/09/02 14:37:24;;;;;;;3.22;1.90;;;;;;;;;;4965788;28;20133;-90
2022/09/02 14:39:51;;;;;;;4.30;1.92;;;;;;;;;;4954128;28;20579;-91
2022/09/02 14:42:17;;;;;;;4.10;2.05;;;;;;;;;;4955153;28;20074;-91
2022/09/02 14:44:45;;;;;;;4.50;2.25;;;;;;;;;;4950791;28;20501;-90
2022/09/02 14:47:16;;;;;;;3.85;1.98;;;;;;;;;;4949122;28;20389;-92
2022/09/02 14:49:47;;;;;;;2.22;2.00;;;;;;;;;;4950504;28;20043;-90
2022/09/02 14:52:27;;;;;;;4.22;1.92;;;;;;;;;;4950013;28;20051;-91
2022/09/02 14:54:54;;;;;;;4.63;2.00;;;;;;;;;;4951921;28;20094;-90
2022/09/02 14:57:20;;;;;;;3.17;1.80;;;;;;;;;;4953836;28;20078;-91